Time;durP1;ratioP1;P1;durP2;ratioP2;P2;SDS_P1;SDS_P2;PMS_P1;PMS_P2;Temp;Humidity;BMP_temperature;BMP_pressure;BME280_temperature;BME280_humidity;BME280_pressure;Samples;Min_cycle;Max_cycle;Signal;HPM_P1;HPM_P2
2022/09/02 00:00:35;;;;;;;4.47;3.38;;;14.00;99.90;;;;;;5072552;28;20112;-73
2022/09/02 00:03:01;;;;;;;4.47;3.47;;;14.00;99.90;;;;;;5070348;28;20021;-73
2022/09/02 00:05:27;;;;;;;4.68;3.13;;;14.00;99.90;;;;;;5072470;28;20432;-72
2022/09/02 00:07:54;;;;;;;3.58;3.25;;;13.90;99.90;;;;;;5071499;28;20090;-71
2022/09/02 00:10:20;;;;;;;3.65;3.22;;;13.90;99.90;;;;;;5071324;28;20544;-73
2022/09/02 00:12:46;;;;;;;5.53;3.50;;;13.90;99.90;;;;;;5069497;28;20099;-73
2022/09/02 00:15:12;;;;;;;3.67;3.38;;;13.90;99.90;;;;;;5069241;28;20437;-73
2022/09/02 00:17:37;;;;;;;4.78;3.42;;;13.80;99.90;;;;;;5070082;28;20036;-72
2022/09/02 00:20:03;;;;;;;5.22;3.63;;;13.80;99.90;;;;;;5070694;28;20050;-72
2022/09/02 00:22:29;;;;;;;4.05;3.47;;;13.80;99.90;;;;;;5069669;28;20016;-73
2022/09/02 00:24:55;;;;;;;5.45;2.95;;;13.80;99.90;;;;;;5070211;28;20037;-72
2022/09/02 00:27:22;;;;;;;7.03;3.40;;;13.80;99.90;;;;;;5071148;28;20024;-73
2022/09/02 00:29:48;;;;;;;5.88;3.45;;;13.80;99.90;;;;;;5070469;28;20121;-72
2022/09/02 00:32:14;;;;;;;4.28;2.95;;;13.70;99.90;;;;;;5066291;28;20020;-73
2022/09/02 00:34:40;;;;;;;5.28;3.10;;;13.70;99.90;;;;;;5070700;28;20078;-71
2022/09/02 00:37:05;;;;;;;3.55;3.08;;;13.70;99.90;;;;;;5071265;28;20117;-73
2022/09/02 00:39:31;;;;;;;6.18;2.95;;;13.60;99.90;;;;;;5071899;28;20504;-73
2022/09/02 00:41:57;;;;;;;3.47;3.17;;;13.60;99.90;;;;;;5069894;28;20385;-72
2022/09/02 00:44:23;;;;;;;3.20;3.00;;;13.60;99.90;;;;;;5072511;27;20106;-72
2022/09/02 00:46:48;;;;;;;5.93;3.28;;;13.50;99.90;;;;;;5070744;28;20032;-72
2022/09/02 00:49:30;;;;;;;3.65;3.35;;;13.40;99.90;;;;;;5071858;28;20359;-73
2022/09/02 00:52:05;;;;;;;3.70;3.22;;;13.40;99.90;;;;;;5067476;28;20083;-72
2022/09/02 00:54:35;;;;;;;5.05;3.72;;;13.40;99.90;;;;;;5071778;28;20071;-72
2022/09/02 00:57:06;;;;;;;4.03;3.63;;;13.40;99.90;;;;;;5070661;28;20062;-72
2022/09/02 00:59:42;;;;;;;4.45;3.38;;;13.30;99.90;;;;;;5070976;28;20040;-72
2022/09/02 01:02:08;;;;;;;4.45;3.67;;;13.30;99.90;;;;;;5071481;28;20025;-72
2022/09/02 01:04:34;;;;;;;5.05;3.58;;;13.30;99.90;;;;;;5071503;28;20449;-72
2022/09/02 01:07:02;;;;;;;5.50;3.47;;;13.30;99.90;;;;;;5067224;28;20060;-73
2022/09/02 01:09:30;;;;;;;5.80;3.88;;;13.30;99.90;;;;;;5070382;28;20033;-72
2022/09/02 01:11:57;;;;;;;7.00;4.00;;;13.30;99.90;;;;;;5069887;28;20020;-71
2022/09/02 01:14:23;;;;;;;7.43;3.60;;;13.30;99.90;;;;;;5070109;28;20021;-73
2022/09/02 01:16:53;;;;;;;4.55;3.20;;;13.30;99.90;;;;;;5070748;28;20354;-72
2022/09/02 01:19:30;;;;;;;5.03;3.78;;;13.20;99.90;;;;;;5070678;28;20029;-72
2022/09/02 01:21:56;;;;;;;4.97;3.63;;;13.30;99.90;;;;;;5067561;28;20469;-71
2022/09/02 01:24:29;;;;;;;4.00;3.47;;;13.20;99.90;;;;;;5069230;28;20032;-72
2022/09/02 01:26:57;;;;;;;3.80;3.30;;;13.20;99.90;;;;;;5070328;28;20381;-72
2022/09/02 01:29:24;;;;;;;4.65;3.45;;;13.20;99.90;;;;;;5070268;28;20031;-73
2022/09/02 01:31:50;;;;;;;4.18;3.78;;;13.20;99.90;;;;;;5070753;28;20036;-71
2022/09/02 01:34:17;;;;;;;5.05;3.38;;;13.10;99.90;;;;;;5071583;28;20024;-73
2022/09/02 01:36:42;;;;;;;4.10;3.20;;;13.10;99.90;;;;;;5071242;28;20064;-70
2022/09/02 01:39:10;;;;;;;3.63;3.28;;;13.10;99.90;;;;;;5066643;28;20114;-72
2022/09/02 01:41:37;;;;;;;5.45;3.70;;;13.10;99.90;;;;;;5053068;28;20520;-72
2022/09/02 01:44:04;;;;;;;6.13;3.40;;;13.10;99.90;;;;;;5069766;28;20044;-71
2022/09/02 01:46:30;;;;;;;3.55;3.08;;;13.10;99.90;;;;;;5073209;28;20496;-71
2022/09/02 01:48:56;;;;;;;4.88;3.35;;;13.00;99.90;;;;;;5072996;28;20470;-71
2022/09/02 01:51:21;;;;;;;4.55;3.72;;;13.00;99.90;;;;;;5074768;28;20043;-72
2022/09/02 01:53:47;;;;;;;7.35;3.10;;;13.00;99.90;;;;;;5073899;28;20036;-71
2022/09/02 01:56:14;;;;;;;4.25;3.25;;;13.00;99.90;;;;;;5072436;28;20028;-72
2022/09/02 01:58:40;;;;;;;9.02;4.03;;;12.90;99.90;;;;;;5073945;28;20032;-72
2022/09/02 02:01:06;;;;;;;3.70;3.40;;;12.90;99.90;;;;;;5073301;28;20544;-72
2022/09/02 02:03:34;;;;;;;4.65;3.03;;;12.90;99.90;;;;;;5074263;28;20031;-73
2022/09/02 02:06:01;;;;;;;6.05;3.85;;;12.90;99.90;;;;;;5073765;28;20079;-73
2022/09/02 02:08:27;;;;;;;4.13;3.40;;;12.90;99.90;;;;;;5079116;28;20474;-74
2022/09/02 02:10:52;;;;;;;3.90;3.13;;;12.80;99.90;;;;;;5080803;28;20092;-73
2022/09/02 02:13:18;;;;;;;4.90;3.65;;;12.80;99.90;;;;;;5082940;28;20032;-72
2022/09/02 02:15:44;;;;;;;4.15;2.97;;;12.80;99.90;;;;;;5085620;28;20078;-70
2022/09/02 02:18:10;;;;;;;4.68;2.90;;;12.80;99.90;;;;;;5076511;28;20028;-72
2022/09/02 02:20:37;;;;;;;4.93;3.50;;;12.80;99.90;;;;;;5077325;28;20030;-73
2022/09/02 02:23:04;;;;;;;6.53;3.17;;;12.80;99.90;;;;;;5075929;28;20060;-72
2022/09/02 02:25:31;;;;;;;6.53;3.20;;;12.70;99.90;;;;;;5075670;28;20055;-73
2022/09/02 02:27:57;;;;;;;7.15;3.67;;;12.70;99.90;;;;;;5074509;28;20043;-72
2022/09/02 02:30:23;;;;;;;6.40;3.50;;;12.70;99.90;;;;;;5068288;28;20037;-73
2022/09/02 02:32:49;;;;;;;6.90;3.50;;;12.70;99.90;;;;;;5055165;28;20050;-72
2022/09/02 02:35:17;;;;;;;4.50;3.20;;;12.60;99.90;;;;;;5073853;28;20028;-73
2022/09/02 02:37:47;;;;;;;4.88;3.20;;;12.60;99.90;;;;;;5074515;28;20036;-76
2022/09/02 02:40:14;;;;;;;4.75;3.55;;;12.60;99.90;;;;;;5073083;28;20477;-76
2022/09/02 02:42:40;;;;;;;4.18;3.47;;;12.50;99.90;;;;;;5074527;28;20035;-75
2022/09/02 02:45:08;;;;;;;3.95;3.55;;;;;;;;;;5073149;28;20045;-76
2022/09/02 02:47:39;;;;;;;3.70;3.13;;;12.50;99.90;;;;;;5066322;28;20362;-71
2022/09/02 02:50:09;;;;;;;7.03;3.30;;;12.50;99.90;;;;;;5052753;28;20116;-73
2022/09/02 02:52:35;;;;;;;3.90;3.20;;;12.50;99.90;;;;;;5053675;28;20454;-73
2022/09/02 02:55:00;;;;;;;7.18;3.13;;;12.50;99.90;;;;;;5055363;28;20124;-73
2022/09/02 02:57:26;;;;;;;4.25;3.30;;;12.40;99.90;;;;;;5068615;28;20111;-72
2022/09/02 02:59:52;;;;;;;5.18;2.92;;;12.40;99.90;;;;;;5072652;28;20086;-71
2022/09/02 03:02:17;;;;;;;4.88;3.20;;;12.40;99.90;;;;;;5073510;28;20031;-72
2022/09/02 03:04:43;;;;;;;4.07;2.97;;;12.40;99.90;;;;;;5067628;28;20516;-72
2022/09/02 03:07:09;;;;;;;4.15;2.75;;;12.40;99.90;;;;;;5070984;28;20041;-73
2022/09/02 03:09:35;;;;;;;4.05;3.08;;;12.40;99.90;;;;;;5073597;28;20423;-72
2022/09/02 03:12:01;;;;;;;3.17;2.88;;;12.40;99.90;;;;;;5072457;28;20025;-73
2022/09/02 03:14:28;;;;;;;3.75;2.78;;;;;;;;;;5071403;28;20059;-74
2022/09/02 03:16:56;;;;;;;3.47;2.88;;;;;;;;;;5070863;28;20021;-72
2022/09/02 03:19:24;;;;;;;7.25;3.17;;;;;;;;;;5068644;28;20060;-72
2022/09/02 03:21:53;;;;;;;4.20;2.80;;;;;;;;;;5068327;28;20021;-70
2022/09/02 03:24:19;;;;;;;4.07;2.90;;;;;;;;;;5070333;28;20017;-71
2022/09/02 03:26:45;;;;;;;5.72;3.20;;;;;;;;;;5071401;28;20086;-72
2022/09/02 03:29:12;;;;;;;3.05;2.75;;;;;;;;;;5070672;28;20032;-72
2022/09/02 03:31:38;;;;;;;2.70;2.50;;;;;;;;;;5071099;28;20025;-72
2022/09/02 03:34:04;;;;;;;4.03;3.00;;;;;;;;;;5070287;28;20017;-73
2022/09/02 03:36:32;;;;;;;3.85;3.25;;;;;;;;;;5070309;28;20035;-74
2022/09/02 03:38:58;;;;;;;4.20;3.25;;;;;;;;;;5067412;28;20438;-73
2022/09/02 03:41:24;;;;;;;3.33;2.63;;;;;;;;;;5045056;28;20115;-71
2022/09/02 03:43:50;;;;;;;3.53;2.80;;;;;;;;;;5070707;28;20381;-70
2022/09/02 03:46:17;;;;;;;5.57;2.92;;;;;;;;;;5071556;28;20020;-72
2022/09/02 03:48:49;;;;;;;4.32;2.85;;;;;;;;;;5072518;28;20029;-72
2022/09/02 03:51:18;;;;;;;4.78;3.13;;;;;;;;;;5072102;28;20078;-72
2022/09/02 03:53:44;;;;;;;6.43;3.28;;;12.20;99.90;;;;;;5070453;28;20056;-72
2022/09/02 03:56:13;;;;;;;4.00;2.50;;;12.10;99.90;;;;;;5070245;28;20032;-72
2022/09/02 03:58:41;;;;;;;4.07;2.88;;;12.10;99.90;;;;;;5072261;28;20028;-72
2022/09/02 04:01:07;;;;;;;5.00;3.22;;;12.00;99.90;;;;;;5071540;28;20028;-72
2022/09/02 04:03:33;;;;;;;4.25;2.80;;;12.00;99.90;;;;;;5054332;28;20351;-72
2022/09/02 04:05:59;;;;;;;3.58;2.97;;;12.00;99.90;;;;;;5070448;28;20038;-71
2022/09/02 04:08:25;;;;;;;3.58;2.75;;;11.80;99.90;;;;;;5071876;28;20032;-72
2022/09/02 04:10:51;;;;;;;3.92;2.88;;;11.80;99.90;;;;;;5068403;28;20056;-70
2022/09/02 04:13:17;;;;;;;4.22;3.05;;;11.80;99.90;;;;;;5072040;28;20075;-72
2022/09/02 04:15:46;;;;;;;4.03;3.00;;;11.80;99.90;;;;;;5071218;28;20036;-73
2022/09/02 04:21:36;;;;;;;3.70;3.10;;;11.80;99.90;;;;;;5072241;28;20066;-73
2022/09/02 04:24:03;;;;;;;4.63;2.92;;;11.70;99.90;;;;;;5069972;28;20032;-73
2022/09/02 04:26:29;;;;;;;8.27;2.97;;;11.70;99.90;;;;;;5071702;28;20062;-72
2022/09/02 04:28:55;;;;;;;3.22;2.80;;;11.70;99.90;;;;;;5066742;28;20586;-73
2022/09/02 04:31:24;;;;;;;5.00;2.97;;;11.70;99.90;;;;;;5071977;28;20086;-74
2022/09/02 04:33:50;;;;;;;5.35;2.75;;;11.70;99.90;;;;;;5070401;28;20116;-73
2022/09/02 04:36:17;;;;;;;6.07;3.20;;;11.70;99.90;;;;;;5071144;28;20078;-73
2022/09/02 04:38:43;;;;;;;4.57;2.90;;;11.70;99.90;;;;;;5072013;28;20036;-73
2022/09/02 04:41:12;;;;;;;4.05;3.30;;;11.70;99.90;;;;;;5071117;28;20054;-72
2022/09/02 04:43:38;;;;;;;5.00;2.88;;;11.70;99.90;;;;;;5069758;28;20025;-73
2022/09/02 04:46:07;;;;;;;2.85;2.55;;;11.70;99.90;;;;;;5066407;28;20056;-72
2022/09/02 04:48:33;;;;;;;5.32;2.80;;;11.70;99.90;;;;;;5071607;28;20094;-73
2022/09/02 04:51:04;;;;;;;9.25;3.40;;;11.70;99.90;;;;;;5070869;28;20389;-72
2022/09/02 04:53:30;;;;;;;3.50;3.08;;;11.70;99.90;;;;;;5071206;28;20111;-72
2022/09/02 04:55:55;;;;;;;5.53;2.90;;;11.70;99.90;;;;;;5070926;28;20444;-70
2022/09/02 04:58:21;;;;;;;4.00;3.20;;;11.70;99.90;;;;;;5071846;28;20381;-73
2022/09/02 05:00:47;;;;;;;5.28;3.40;;;11.80;99.90;;;;;;5070451;28;20074;-71
2022/09/02 05:03:12;;;;;;;3.78;3.22;;;11.80;99.90;;;;;;5065985;28;20043;-73
2022/09/02 05:05:38;;;;;;;6.28;3.65;;;11.80;99.90;;;;;;5071748;28;20028;-72
2022/09/02 05:08:04;;;;;;;3.75;3.00;;;11.80;99.90;;;;;;5070778;28;20032;-72
2022/09/02 05:10:31;;;;;;;3.50;2.88;;;11.80;99.90;;;;;;5071768;28;20478;-73
2022/09/02 05:12:58;;;;;;;4.20;3.40;;;11.80;99.90;;;;;;5063050;28;20071;-70
2022/09/02 05:15:24;;;;;;;4.05;3.33;;;11.80;99.90;;;;;;5061217;28;20040;-72
2022/09/02 05:17:50;;;;;;;3.90;3.10;;;11.80;99.90;;;;;;5063850;28;20029;-72
2022/09/02 05:20:15;;;;;;;4.07;3.17;;;11.90;99.90;;;;;;5061412;28;20612;-72
2022/09/02 05:22:42;;;;;;;3.20;2.88;;;11.90;99.90;;;;;;5073692;28;20028;-73
2022/09/02 05:25:08;;;;;;;3.83;3.00;;;11.90;99.90;;;;;;5074277;28;20039;-72
2022/09/02 05:27:34;;;;;;;5.38;3.15;;;11.90;99.90;;;;;;5074745;28;20029;-72
2022/09/02 05:30:01;;;;;;;4.07;3.08;;;11.90;99.90;;;;;;5074405;28;20082;-73
2022/09/02 05:32:27;;;;;;;3.38;3.03;;;12.00;99.90;;;;;;5074019;28;20521;-73
2022/09/02 05:34:54;;;;;;;4.40;3.28;;;12.10;99.90;;;;;;5069192;28;20527;-72
2022/09/02 05:37:20;;;;;;;5.10;3.40;;;12.10;99.90;;;;;;5074894;28;20039;-73
2022/09/02 05:39:46;;;;;;;3.30;3.00;;;12.20;99.90;;;;;;5075297;28;20028;-73
2022/09/02 05:42:12;;;;;;;4.60;3.45;;;12.30;99.90;;;;;;5073006;28;20048;-73
2022/09/02 05:44:37;;;;;;;4.47;3.15;;;12.40;99.90;;;;;;5074318;28;20174;-73
2022/09/02 05:47:04;;;;;;;5.78;3.60;;;12.40;99.90;;;;;;5073910;28;20078;-72
2022/09/02 05:49:30;;;;;;;4.80;3.20;;;12.50;99.90;;;;;;5064086;28;20032;-71
2022/09/02 05:51:58;;;;;;;6.55;3.58;;;12.60;99.90;;;;;;5071157;28;20033;-70
2022/09/02 05:54:33;;;;;;;7.47;3.53;;;12.70;99.90;;;;;;5073945;28;20048;-73
2022/09/02 05:57:09;;;;;;;4.53;3.53;;;12.80;99.90;;;;;;5074103;28;20037;-72
2022/09/02 05:59:41;;;;;;;5.35;3.80;;;12.90;99.90;;;;;;5074593;28;20115;-72
2022/09/02 06:02:08;;;;;;;4.32;3.60;;;13.00;99.90;;;;;;5072797;28;20025;-73
2022/09/02 06:04:47;;;;;;;4.22;3.67;;;13.10;99.90;;;;;;5074585;28;20032;-73
2022/09/02 06:07:14;;;;;;;5.45;4.20;;;13.10;99.90;;;;;;5073539;28;20036;-73
2022/09/02 06:09:40;;;;;;;5.13;4.45;;;13.20;99.90;;;;;;5068922;28;20048;-73
2022/09/02 06:12:07;;;;;;;5.43;4.45;;;13.40;99.90;;;;;;5071591;28;20394;-72
2022/09/02 06:14:33;;;;;;;6.22;4.60;;;13.50;99.90;;;;;;5074045;28;20029;-73
2022/09/02 06:16:59;;;;;;;5.15;4.40;;;13.60;99.90;;;;;;5072550;28;20052;-69
2022/09/02 06:19:29;;;;;;;6.70;4.53;;;13.70;99.90;;;;;;5073138;28;20065;-72
2022/09/02 06:21:55;;;;;;;4.80;4.10;;;13.80;99.90;;;;;;5072922;28;20060;-72
2022/09/02 06:24:22;;;;;;;7.32;3.80;;;14.00;99.90;;;;;;5073111;28;20037;-72
2022/09/02 06:26:48;;;;;;;5.95;4.30;;;14.10;99.90;;;;;;5068309;28;20028;-71
2022/09/02 06:29:14;;;;;;;9.80;4.80;;;14.20;99.90;;;;;;5073179;28;20086;-72
2022/09/02 06:31:45;;;;;;;6.10;4.10;;;14.30;99.90;;;;;;5072622;28;20421;-71
2022/09/02 06:34:12;;;;;;;8.18;4.18;;;14.50;99.90;;;;;;5076995;28;20508;-71
2022/09/02 06:36:41;;;;;;;7.65;4.30;;;14.60;99.90;;;;;;5073276;28;20040;-72
2022/09/02 06:39:10;;;;;;;8.15;4.18;;;14.70;99.90;;;;;;5072098;28;20496;-71
2022/09/02 06:41:39;;;;;;;5.03;4.13;;;14.90;99.90;;;;;;5065918;28;20068;-71
2022/09/02 06:44:05;;;;;;;7.90;3.97;;;15.10;99.90;;;;;;5062660;28;20068;-71
2022/09/02 06:46:34;;;;;;;7.82;3.65;;;15.20;99.90;;;;;;5072867;28;20492;-71
2022/09/02 06:49:00;;;;;;;8.25;3.85;;;15.40;99.90;;;;;;5071593;28;20103;-70
2022/09/02 06:51:29;;;;;;;8.13;3.42;;;15.40;99.90;;;;;;5066544;28;20545;-71
2022/09/02 06:53:55;;;;;;;5.13;3.22;;;15.50;99.90;;;;;;5069176;28;20024;-71
2022/09/02 06:56:21;;;;;;;8.02;3.55;;;15.60;99.90;;;;;;5072703;28;20077;-71
2022/09/02 06:58:47;;;;;;;7.78;3.85;;;15.80;99.90;;;;;;5073168;28;20031;-72
2022/09/02 07:01:21;;;;;;;9.43;3.88;;;16.00;99.90;;;;;;5072490;28;20033;-73
2022/09/02 07:06:43;;;;;;;5.82;2.70;;;16.20;99.90;;;;;;5072244;28;20028;-70
2022/09/02 07:09:11;;;;;;;4.75;2.72;;;16.30;99.90;;;;;;5071573;28;20032;-72
2022/09/02 07:11:37;;;;;;;5.35;2.45;;;16.40;99.90;;;;;;5072590;28;20089;-71
2022/09/02 07:14:04;;;;;;;6.40;2.85;;;16.50;99.90;;;;;;5071875;28;20059;-70
2022/09/02 07:16:32;;;;;;;5.07;3.33;;;16.70;99.90;;;;;;5072488;28;20111;-71
2022/09/02 07:19:00;;;;;;;6.22;2.80;;;17.00;99.90;;;;;;5072557;28;20068;-71
2022/09/02 07:21:27;;;;;;;6.38;3.08;;;17.00;99.90;;;;;;5068012;28;20029;-71
2022/09/02 07:23:54;;;;;;;6.63;2.95;;;17.20;99.90;;;;;;5063787;28;20036;-72
2022/09/02 07:26:20;;;;;;;8.50;3.00;;;17.40;99.90;;;;;;5068878;28;20032;-72
2022/09/02 07:28:46;;;;;;;5.85;2.80;;;17.50;99.90;;;;;;5071515;28;20028;-71
2022/09/02 07:31:14;;;;;;;14.15;2.85;;;17.60;99.90;;;;;;5052904;28;20024;-70
2022/09/02 07:33:40;;;;;;;6.13;3.13;;;17.80;99.90;;;;;;5069336;28;20017;-71
2022/09/02 07:36:09;;;;;;;4.97;3.15;;;17.80;99.90;;;;;;5071114;28;20020;-71
2022/09/02 07:38:35;;;;;;;4.90;2.72;;;17.80;99.90;;;;;;5071745;28;20120;-71
2022/09/02 07:41:01;;;;;;;7.68;2.90;;;17.90;99.90;;;;;;5064848;28;20131;-70
2022/09/02 07:43:29;;;;;;;6.85;3.17;;;17.90;99.90;;;;;;5070344;28;20501;-70
2022/09/02 07:45:55;;;;;;;4.03;2.03;;;18.00;99.90;;;;;;5071643;28;20408;-71
2022/09/02 07:48:22;;;;;;;3.08;1.95;;;18.10;99.90;;;;;;5068932;28;20039;-70
2022/09/02 07:50:48;;;;;;;2.53;1.98;;;18.20;99.90;;;;;;5065469;28;20067;-70
2022/09/02 07:53:15;;;;;;;7.18;2.00;;;18.20;99.90;;;;;;5070716;28;20056;-70
2022/09/02 07:55:41;;;;;;;6.55;1.85;;;18.20;99.90;;;;;;5070142;28;20035;-71
2022/09/02 07:58:10;;;;;;;4.10;1.88;;;;;;;;;;5071326;28;20086;-70
2022/09/02 08:00:38;;;;;;;2.20;1.80;;;;;;;;;;5071426;28;20012;-70
2022/09/02 08:03:04;;;;;;;2.95;1.60;;;18.80;99.90;;;;;;5070771;28;20020;-70
2022/09/02 08:05:32;;;;;;;3.38;1.40;;;18.80;99.90;;;;;;5071608;28;20028;-71
2022/09/02 08:07:59;;;;;;;5.65;1.77;;;18.90;99.90;;;;;;5071978;28;20037;-71
2022/09/02 08:10:28;;;;;;;3.20;1.77;;;18.90;99.90;;;;;;5071892;28;20048;-71
2022/09/02 08:12:56;;;;;;;2.72;1.70;;;19.10;99.90;;;;;;5070866;28;20063;-71
2022/09/02 08:15:21;;;;;;;1.92;1.60;;;19.20;99.90;;;;;;5060558;28;20048;-71
2022/09/02 08:17:47;;;;;;;6.45;1.83;;;19.30;99.90;;;;;;5064964;28;20489;-72
2022/09/02 08:20:15;;;;;;;1.52;1.25;;;19.30;99.90;;;;;;5066989;28;20025;-73
2022/09/02 08:22:42;;;;;;;3.92;1.60;;;19.40;99.70;;;;;;5079457;28;20457;-71
2022/09/02 08:25:08;;;;;;;2.58;1.67;;;19.50;99.90;;;;;;5068874;28;20095;-70
2022/09/02 08:27:35;;;;;;;3.53;1.65;;;19.60;99.70;;;;;;5068983;28;20039;-71
2022/09/02 08:30:00;;;;;;;3.00;1.52;;;19.70;98.90;;;;;;5070773;28;20036;-71
2022/09/02 08:32:27;;;;;;;2.17;1.50;;;19.60;98.90;;;;;;5070089;28;20037;-72
2022/09/02 08:34:53;;;;;;;2.88;1.48;;;19.70;99.20;;;;;;5066052;28;20032;-72
2022/09/02 08:37:19;;;;;;;2.58;1.50;;;19.90;98.20;;;;;;5069759;28;20205;-73
2022/09/02 08:39:46;;;;;;;3.33;1.42;;;20.00;97.80;;;;;;5067490;28;20393;-72
2022/09/02 08:42:21;;;;;;;3.00;1.40;;;20.00;97.40;;;;;;5065834;28;20369;-71
2022/09/02 08:44:50;;;;;;;3.53;1.35;;;20.00;97.00;;;;;;5070251;28;20058;-71
2022/09/02 08:47:23;;;;;;;4.75;1.27;;;20.00;96.80;;;;;;5069616;28;20067;-71
2022/09/02 08:49:58;;;;;;;5.22;1.55;;;19.90;97.20;;;;;;5066236;28;20492;-71
2022/09/02 08:52:46;;;;;;;4.60;1.65;;;20.00;97.20;;;;;;5067392;28;20052;-70
2022/09/02 08:55:24;;;;;;;4.72;1.77;;;20.20;96.30;;;;;;5071457;28;20087;-69
2022/09/02 08:57:55;;;;;;;2.75;1.40;;;20.20;95.70;;;;;;5074674;28;20035;-72
2022/09/02 09:00:21;;;;;;;3.42;1.42;;;20.20;95.50;;;;;;5073986;28;20621;-72
2022/09/02 09:02:55;;;;;;;1.77;1.05;;;20.30;95.10;;;;;;5074659;28;20031;-72
2022/09/02 09:05:54;;;;;;;3.45;1.35;;;20.30;95.00;;;;;;5074241;28;20052;-72
2022/09/02 09:08:37;;;;;;;10.48;1.55;;;20.40;94.80;;;;;;5073927;28;20033;-72
2022/09/02 09:11:14;;;;;;;2.13;1.40;;;20.50;94.50;;;;;;5074442;28;20028;-71
2022/09/02 09:14:01;;;;;;;5.47;1.75;;;20.50;94.70;;;;;;5074225;28;20029;-72
2022/09/02 09:16:58;;;;;;;4.70;1.50;;;20.70;94.00;;;;;;5071170;28;20040;-72
2022/09/02 09:19:48;;;;;;;3.63;1.77;;;20.70;94.00;;;;;;5072370;28;20036;-72
2022/09/02 09:22:21;;;;;;;2.72;1.55;;;20.80;94.20;;;;;;5057646;28;20052;-72
2022/09/02 09:24:49;;;;;;;3.50;1.48;;;21.10;93.50;;;;;;5069805;28;20021;-72
2022/09/02 09:27:22;;;;;;;2.95;1.20;;;21.20;92.50;;;;;;5062907;28;20052;-72
2022/09/02 09:29:49;;;;;;;2.03;1.10;;;21.20;92.40;;;;;;5075020;28;20029;-72
2022/09/02 09:32:34;;;;;;;5.97;1.15;;;21.20;91.90;;;;;;5073473;28;20052;-72
2022/09/02 09:35:07;;;;;;;2.55;0.95;;;21.30;91.40;;;;;;5073484;28;20017;-71
2022/09/02 09:37:37;;;;;;;3.75;1.00;;;21.20;91.30;;;;;;5075405;28;20442;-71
2022/09/02 09:40:21;;;;;;;1.73;1.20;;;21.30;90.60;;;;;;5074238;28;20085;-71
2022/09/02 09:42:54;;;;;;;2.85;1.40;;;21.30;90.30;;;;;;5068142;28;20040;-71
2022/09/02 09:45:40;;;;;;;2.30;1.10;;;21.30;90.70;;;;;;5073417;28;20053;-71
2022/09/02 09:48:18;;;;;;;3.85;1.30;;;21.50;88.10;;;;;;5073163;28;20051;-71
2022/09/02 09:50:53;;;;;;;3.40;1.02;;;21.40;89.00;;;;;;5059071;28;20025;-73
2022/09/02 09:53:21;;;;;;;0.80;0.80;;;21.50;89.40;;;;;;5063808;28;20363;-72
2022/09/02 09:55:53;;;;;;;1.55;1.17;;;21.60;88.60;;;;;;5054918;28;20111;-72
2022/09/02 09:58:41;;;;;;;3.22;1.13;;;21.70;88.30;;;;;;5061453;28;20032;-71
2022/09/02 10:01:17;;;;;;;2.30;1.02;;;21.80;87.50;;;;;;5063348;28;20032;-73
2022/09/02 10:03:53;;;;;;;0.90;0.90;;;21.80;87.90;;;;;;5068094;28;20032;-71
2022/09/02 10:06:32;;;;;;;2.88;1.23;;;22.00;86.30;;;;;;5072145;28;20083;-71
2022/09/02 10:09:06;;;;;;;2.80;0.90;;;22.10;84.50;;;;;;5074008;28;20040;-72
2022/09/02 10:11:35;;;;;;;2.85;1.00;;;22.20;83.90;;;;;;5073928;28;20039;-71
2022/09/02 10:14:05;;;;;;;2.22;1.08;;;22.30;82.10;;;;;;5071993;28;20040;-71
2022/09/02 10:16:47;;;;;;;1.45;1.00;;;22.30;80.50;;;;;;5073644;28;20056;-70
2022/09/02 10:19:39;;;;;;;1.95;1.20;;;22.30;80.40;;;;;;5072594;28;20042;-69
2022/09/02 10:22:38;;;;;;;1.05;0.98;;;22.40;80.90;;;;;;5072840;28;20024;-71
2022/09/02 10:25:36;;;;;;;1.02;1.00;;;22.60;79.50;;;;;;5063726;28;20069;-70
2022/09/02 10:28:33;;;;;;;2.17;0.90;;;22.80;77.40;;;;;;5072425;28;20067;-70
2022/09/02 10:31:05;;;;;;;2.78;1.05;;;23.00;76.70;;;;;;5073629;28;20020;-70
2022/09/02 10:34:02;;;;;;;1.55;1.00;;;23.10;76.50;;;;;;5073625;28;20024;-70
2022/09/02 10:36:35;;;;;;;2.00;0.98;;;23.10;74.70;;;;;;5065461;28;20362;-70
2022/09/02 10:39:29;;;;;;;1.10;1.00;;;23.20;73.90;;;;;;5073476;28;20500;-70
2022/09/02 10:42:09;;;;;;;1.70;1.10;;;23.30;73.70;;;;;;5067674;28;20078;-70
2022/09/02 10:45:00;;;;;;;1.15;1.05;;;23.40;72.00;;;;;;5073175;27;20048;-70
2022/09/02 10:47:37;;;;;;;8.35;1.00;;;23.40;73.10;;;;;;5061054;28;20048;-71
2022/09/02 10:50:14;;;;;;;1.63;0.80;;;23.50;72.40;;;;;;5072966;28;20090;-70
2022/09/02 10:53:01;;;;;;;1.08;0.93;;;23.50;72.30;;;;;;5039548;28;20082;-70
2022/09/02 10:55:34;;;;;;;1.88;1.00;;;23.60;72.20;;;;;;5072123;28;20672;-72
2022/09/02 10:58:07;;;;;;;2.00;1.20;;;23.70;72.70;;;;;;5072766;28;20037;-70
2022/09/02 11:00:36;;;;;;;1.42;1.05;;;23.90;71.50;;;;;;5073005;28;20033;-70
2022/09/02 11:03:24;;;;;;;1.05;0.95;;;24.10;70.70;;;;;;5072891;28;20012;-70
2022/09/02 11:06:27;;;;;;;1.25;1.02;;;24.30;70.50;;;;;;5072671;28;20082;-71
2022/09/02 11:08:58;;;;;;;1.40;1.20;;;24.40;70.10;;;;;;5058591;28;20040;-70
2022/09/02 11:11:26;;;;;;;1.63;1.30;;;24.30;69.80;;;;;;5071817;28;20033;-71
2022/09/02 11:14:06;;;;;;;1.85;1.15;;;24.40;69.60;;;;;;5072096;28;20048;-71
2022/09/02 11:16:35;;;;;;;;;;;24.50;69.40;;;;;;5059217;28;20858;-71
2022/09/02 11:19:21;;;;;;;1.20;1.10;;;24.80;69.40;;;;;;5071563;28;19912;-71
2022/09/02 11:21:59;;;;;;;1.58;1.10;;;25.00;67.90;;;;;;5072613;28;20033;-71
2022/09/02 11:24:38;;;;;;;4.43;1.23;;;25.10;67.80;;;;;;5071531;28;20112;-71
2022/09/02 11:27:28;;;;;;;4.97;0.95;;;25.20;67.60;;;;;;5072093;28;20024;-71
2022/09/02 11:29:57;;;;;;;;;;;25.30;66.90;;;;;;5072728;28;20037;-71
2022/09/02 11:32:40;;;;;;;2.80;0.98;;;25.60;67.30;;;;;;5071236;28;19912;-71
2022/09/02 11:35:12;;;;;;;1.02;0.93;;;25.70;66.50;;;;;;5071840;28;20116;-70
2022/09/02 11:37:44;;;;;;;2.05;0.90;;;25.90;65.90;;;;;;5072083;28;20079;-71
2022/09/02 11:40:12;;;;;;;1.13;0.98;;;26.10;66.20;;;;;;5071232;28;20028;-71
2022/09/02 11:43:16;;;;;;;3.38;1.20;;;26.30;64.80;;;;;;5055906;28;20401;-71
2022/09/02 11:46:13;;;;;;;1.55;1.05;;;26.50;64.50;;;;;;5071789;28;20052;-71
2022/09/02 11:49:10;;;;;;;1.55;1.02;;;26.80;64.00;;;;;;5064699;28;20029;-71
2022/09/02 11:51:42;;;;;;;1.55;1.08;;;27.10;63.70;;;;;;5071960;28;20115;-71
2022/09/02 11:54:11;;;;;;;3.22;1.00;;;27.20;62.50;;;;;;5071387;28;20453;-70
2022/09/02 11:56:40;;;;;;;2.17;1.02;;;27.20;62.90;;;;;;5055304;28;20418;-71
2022/09/02 11:59:07;;;;;;;1.95;1.00;;;27.20;62.20;;;;;;5071400;28;20029;-70
2022/09/02 12:01:54;;;;;;;2.78;1.10;;;27.10;62.20;;;;;;5071420;28;20060;-70
2022/09/02 12:04:25;;;;;;;1.27;1.17;;;27.20;62.60;;;;;;5070396;28;20032;-70
2022/09/02 12:07:05;;;;;;;2.50;1.13;;;27.30;62.00;;;;;;5057163;28;20025;-71
2022/09/02 12:09:55;;;;;;;4.10;1.35;;;27.50;61.30;;;;;;5071211;28;20071;-70
2022/09/02 12:12:36;;;;;;;1.42;1.10;;;27.60;61.50;;;;;;5070285;28;20433;-70
2022/09/02 12:15:04;;;;;;;4.25;1.00;;;27.70;61.30;;;;;;5071632;28;20021;-70
2022/09/02 12:17:36;;;;;;;2.80;1.25;;;27.90;60.00;;;;;;5073572;28;20035;-71
2022/09/02 12:20:05;;;;;;;1.13;1.00;;;27.80;60.10;;;;;;5071514;28;20063;-71
2022/09/02 12:22:37;;;;;;;1.53;1.10;;;27.70;60.00;;;;;;5070622;28;20034;-71
2022/09/02 12:25:23;;;;;;;1.38;1.10;;;27.70;59.30;;;;;;5071498;28;20060;-71
2022/09/02 12:27:49;;;;;;;3.38;0.90;;;27.80;59.20;;;;;;5056993;28;20400;-71
2022/09/02 12:31:00;;;;;;;2.53;1.30;;;27.70;59.90;;;;;;5069867;28;20024;-71
2022/09/02 12:33:37;;;;;;;2.35;1.05;;;27.70;60.50;;;;;;5040336;28;20032;-71
2022/09/02 12:36:04;;;;;;;1.83;1.20;;;28.00;60.40;;;;;;5071227;28;20108;-72
2022/09/02 12:38:40;;;;;;;3.20;1.42;;;28.30;58.70;;;;;;5070114;28;20044;-72
2022/09/02 12:41:08;;;;;;;1.90;1.30;;;28.60;58.30;;;;;;5069124;28;20067;-72
2022/09/02 12:43:34;;;;;;;4.93;1.30;;;28.90;58.70;;;;;;5070738;28;20024;-71
2022/09/02 12:46:16;;;;;;;2.88;0.90;;;29.10;58.20;;;;;;5070963;28;20059;-71
2022/09/02 12:48:51;;;;;;;3.28;1.10;;;29.10;57.80;;;;;;5058995;28;20484;-71
2022/09/02 12:51:53;;;;;;;2.65;1.00;;;28.70;57.30;;;;;;5063807;28;20037;-72
2022/09/02 12:54:43;;;;;;;1.25;1.10;;;28.40;57.50;;;;;;5056482;28;20117;-71
2022/09/02 12:57:10;;;;;;;2.35;1.30;;;28.50;57.60;;;;;;5068465;28;20043;-71
2022/09/02 12:59:39;;;;;;;2.40;1.20;;;28.20;58.10;;;;;;5062024;28;20031;-71
2022/09/02 13:02:35;;;;;;;1.10;1.10;;;28.00;58.70;;;;;;5067176;28;20108;-70
2022/09/02 13:05:16;;;;;;;1.77;1.13;;;28.00;59.50;;;;;;5057900;28;20033;-71
2022/09/02 13:07:53;;;;;;;2.70;1.20;;;28.10;59.80;;;;;;5067471;28;20028;-70
2022/09/02 13:10:37;;;;;;;1.40;1.30;;;27.90;58.70;;;;;;5070578;28;20037;-70
2022/09/02 13:13:29;;;;;;;1.48;1.38;;;27.50;59.40;;;;;;5078164;28;20056;-70
2022/09/02 13:16:15;;;;;;;0.82;0.82;;;27.30;59.00;;;;;;5087423;28;20017;-71
2022/09/02 13:19:19;;;;;;;1.00;1.00;;;27.30;59.50;;;;;;5061055;28;20088;-71